createdAt,value
2018-08-17T00:00:57.747Z,8.60
2018-08-17T00:03:27.088Z,9.17
2018-08-17T00:05:56.469Z,9.17
2018-08-17T00:08:25.778Z,9.20
2018-08-17T00:10:55.068Z,7.93
2018-08-17T00:13:24.372Z,8.20
2018-08-17T00:15:53.615Z,8.60
2018-08-17T00:18:22.921Z,8.13
2018-08-17T00:20:52.261Z,9.53
2018-08-17T00:23:21.537Z,8.93
2018-08-17T00:25:50.798Z,9.47
2018-08-17T00:28:20.125Z,9.07
2018-08-17T00:30:49.336Z,9.07
2018-08-17T00:33:18.605Z,9.10
2018-08-17T00:35:47.877Z,9.60
2018-08-17T00:38:17.144Z,9.20
2018-08-17T00:40:46.380Z,8.00
2018-08-17T00:43:15.742Z,8.13
2018-08-17T00:45:45.438Z,8.83
2018-08-17T00:48:14.701Z,9.17
2018-08-17T00:50:44.034Z,8.90
2018-08-17T00:53:13.397Z,8.60
2018-08-17T00:55:42.641Z,10.60
2018-08-17T00:58:11.932Z,9.30
2018-08-17T01:00:41.201Z,9.30
2018-08-17T01:03:10.729Z,10.20
2018-08-17T01:05:40.026Z,11.03
2018-08-17T01:08:09.361Z,10.23
2018-08-17T01:10:38.647Z,10.33
2018-08-17T01:13:15.159Z,10.53
2018-08-17T01:15:44.533Z,10.30
2018-08-17T01:18:14.114Z,12.27
2018-08-17T01:20:43.410Z,11.83
2018-08-17T01:23:12.693Z,10.87
2018-08-17T01:25:41.949Z,11.17
2018-08-17T01:28:11.425Z,10.50
2018-08-17T01:30:40.757Z,9.70
2018-08-17T01:33:10.199Z,10.10
2018-08-17T01:35:39.462Z,9.90
2018-08-17T01:38:08.792Z,10.50
2018-08-17T01:40:38.088Z,11.30
2018-08-17T01:43:07.750Z,10.60
2018-08-17T01:45:37.011Z,10.43
2018-08-17T01:48:06.344Z,9.70
2018-08-17T01:50:35.676Z,9.67
2018-08-17T01:53:04.971Z,10.17
2018-08-17T01:55:34.500Z,10.43
2018-08-17T01:58:03.824Z,10.27
2018-08-17T02:00:33.132Z,10.30
2018-08-17T02:03:02.466Z,10.63
2018-08-17T02:05:31.814Z,9.67
2018-08-17T02:08:01.134Z,10.37
2018-08-17T02:10:30.591Z,11.03
2018-08-17T02:13:00.036Z,12.40
2018-08-17T02:15:29.310Z,11.20
2018-08-17T02:17:58.599Z,10.87
2018-08-17T02:20:28.004Z,11.10
2018-08-17T02:22:57.266Z,10.67
2018-08-17T02:25:26.544Z,10.50
2018-08-17T02:27:55.886Z,11.07
2018-08-17T02:30:25.169Z,10.37
2018-08-17T02:32:54.507Z,10.30
2018-08-17T02:35:23.829Z,10.40
2018-08-17T02:37:53.218Z,10.67
2018-08-17T02:40:22.569Z,10.80
2018-08-17T02:42:51.940Z,10.80
2018-08-17T02:45:21.244Z,10.50
2018-08-17T02:47:50.668Z,10.80
2018-08-17T02:50:20.016Z,10.30
2018-08-17T02:52:49.360Z,10.20
2018-08-17T02:55:18.691Z,11.30
2018-08-17T02:57:48.043Z,11.67
2018-08-17T03:00:17.427Z,9.70
2018-08-17T03:02:46.795Z,10.17
2018-08-17T03:05:16.111Z,9.37
2018-08-17T03:07:45.373Z,9.80
2018-08-17T03:10:14.569Z,11.20
2018-08-17T03:12:43.818Z,10.83
2018-08-17T03:15:13.223Z,10.17
2018-08-17T03:17:42.500Z,9.90
2018-08-17T03:20:11.833Z,9.93
2018-08-17T03:22:41.139Z,10.53
2018-08-17T03:25:10.437Z,9.50
2018-08-17T03:27:39.702Z,9.53
2018-08-17T03:30:08.926Z,10.27
2018-08-17T03:32:38.170Z,9.80
2018-08-17T03:35:07.659Z,10.20
2018-08-17T03:37:36.948Z,9.30
2018-08-17T03:40:06.388Z,10.03
2018-08-17T03:42:35.767Z,8.33
2018-08-17T03:45:05.333Z,9.13
2018-08-17T03:47:34.592Z,9.30
2018-08-17T03:50:04.003Z,8.93
2018-08-17T03:52:33.253Z,7.90
2018-08-17T03:55:02.480Z,8.60
2018-08-17T03:57:31.886Z,9.37
2018-08-17T04:00:01.220Z,9.90
2018-08-17T04:02:30.623Z,8.67
2018-08-17T04:04:59.944Z,10.00
2018-08-17T04:07:29.197Z,9.10
2018-08-17T04:09:58.509Z,9.67
2018-08-17T04:12:27.862Z,9.70
2018-08-17T04:14:57.123Z,9.67
2018-08-17T04:17:26.375Z,8.80
2018-08-17T04:19:55.656Z,7.40
2018-08-17T04:22:24.943Z,8.77
2018-08-17T04:24:54.196Z,7.57
2018-08-17T04:27:23.426Z,7.90
2018-08-17T04:29:52.664Z,8.27
2018-08-17T04:32:21.971Z,7.90
2018-08-17T04:34:51.261Z,7.40
2018-08-17T04:37:20.533Z,7.70
2018-08-17T04:39:49.786Z,6.60
2018-08-17T04:42:19.119Z,7.80
2018-08-17T04:44:48.431Z,6.80
2018-08-17T04:47:17.714Z,6.60
2018-08-17T04:49:47.005Z,5.37
2018-08-17T04:52:16.295Z,5.90
2018-08-17T04:54:45.555Z,5.20
2018-08-17T04:57:14.896Z,4.70
2018-08-17T04:59:44.183Z,4.83
2018-08-17T05:02:13.467Z,4.67
2018-08-17T05:04:42.801Z,4.53
2018-08-17T05:07:12.463Z,5.47
2018-08-17T05:09:41.780Z,5.07
2018-08-17T05:12:11.119Z,5.20
2018-08-17T05:14:40.388Z,5.50
2018-08-17T05:17:09.710Z,5.13
2018-08-17T05:19:39.118Z,4.77
2018-08-17T05:22:08.532Z,3.97
2018-08-17T05:24:37.813Z,5.23
2018-08-17T05:27:07.119Z,5.17
2018-08-17T05:29:36.406Z,5.13
2018-08-17T05:32:05.655Z,5.00
2018-08-17T05:34:34.988Z,5.70
2018-08-17T05:37:04.421Z,4.40
2018-08-17T05:39:33.718Z,7.00
2018-08-17T05:42:03.078Z,5.90
2018-08-17T05:44:32.411Z,5.73
2018-08-17T05:47:01.842Z,6.23
2018-08-17T05:49:31.123Z,7.00
2018-08-17T05:52:00.396Z,6.47
2018-08-17T05:54:29.665Z,6.33
2018-08-17T05:56:58.968Z,6.13
2018-08-17T05:59:28.376Z,5.80
2018-08-17T06:01:57.623Z,5.30
2018-08-17T06:04:26.947Z,6.10
2018-08-17T06:06:56.241Z,5.40
2018-08-17T06:09:25.536Z,5.20
2018-08-17T06:11:54.793Z,5.90
2018-08-17T06:14:24.180Z,5.10
2018-08-17T06:16:53.630Z,4.90
2018-08-17T06:19:23.069Z,5.70
2018-08-17T06:21:52.401Z,4.67
2018-08-17T06:24:21.771Z,4.70
2018-08-17T06:26:51.066Z,4.70
2018-08-17T06:29:20.487Z,5.63
2018-08-17T06:31:49.977Z,4.70
2018-08-17T06:34:19.258Z,5.90
2018-08-17T06:36:48.737Z,5.27
2018-08-17T06:39:18.022Z,5.20
2018-08-17T06:41:47.310Z,4.70
2018-08-17T06:44:16.623Z,5.57
2018-08-17T06:46:45.939Z,4.47
2018-08-17T06:49:15.672Z,5.00
2018-08-17T06:51:45.025Z,5.10
2018-08-17T06:54:14.368Z,4.77
2018-08-17T06:56:43.686Z,4.70
2018-08-17T06:59:12.996Z,5.60
2018-08-17T07:01:42.256Z,5.83
2018-08-17T07:04:11.781Z,6.10
2018-08-17T07:06:41.179Z,6.40
2018-08-17T07:09:11.564Z,6.77
2018-08-17T07:11:41.524Z,5.93
2018-08-17T07:14:11.676Z,6.33
2018-08-17T07:16:41.044Z,5.73
2018-08-17T07:19:10.361Z,6.20
2018-08-17T07:21:39.708Z,6.20
2018-08-17T07:24:08.963Z,6.37
2018-08-17T07:26:38.227Z,5.90
2018-08-17T07:29:07.676Z,6.40
2018-08-17T07:31:36.953Z,5.80
2018-08-17T07:34:06.238Z,5.83
2018-08-17T07:36:35.671Z,6.07
2018-08-17T07:39:06.732Z,5.70
2018-08-17T07:41:36.161Z,6.40
2018-08-17T07:44:05.505Z,5.83
2018-08-17T07:46:34.848Z,6.23
2018-08-17T07:49:04.273Z,6.63
2018-08-17T07:51:33.689Z,6.73
2018-08-17T07:54:02.968Z,5.60
2018-08-17T07:56:32.248Z,5.80
2018-08-17T07:59:01.565Z,5.90
2018-08-17T08:01:30.847Z,6.77
2018-08-17T08:04:00.178Z,5.70
2018-08-17T08:06:29.400Z,6.73
2018-08-17T08:08:58.725Z,7.87
2018-08-17T08:11:28.139Z,5.37
2018-08-17T08:13:57.470Z,6.40
2018-08-17T08:16:26.777Z,6.80
2018-08-17T08:18:56.076Z,5.60
2018-08-17T08:21:25.364Z,5.47
2018-08-17T08:23:54.654Z,5.10
2018-08-17T08:26:25.404Z,5.40
2018-08-17T08:28:54.697Z,6.50
2018-08-17T08:31:24.173Z,7.57
2018-08-17T08:33:53.426Z,8.30
2018-08-17T08:36:22.719Z,9.20
2018-08-17T08:38:52.059Z,10.70
2018-08-17T08:41:21.443Z,10.40
2018-08-17T08:43:50.829Z,10.20
2018-08-17T08:46:20.140Z,11.27
2018-08-17T08:48:49.555Z,10.80
2018-08-17T08:51:18.951Z,11.10
2018-08-17T08:53:48.224Z,10.90
2018-08-17T08:56:17.466Z,10.97
2018-08-17T08:58:46.726Z,12.33
2018-08-17T09:01:15.958Z,13.23
2018-08-17T09:03:45.302Z,15.27
2018-08-17T09:06:14.600Z,14.37
2018-08-17T09:08:44.587Z,15.10
2018-08-17T09:11:13.996Z,15.50
2018-08-17T09:13:43.256Z,14.03
2018-08-17T09:16:12.578Z,13.17
2018-08-17T09:18:41.947Z,15.23
2018-08-17T09:21:11.284Z,14.43
2018-08-17T09:23:40.565Z,14.70
2018-08-17T09:26:09.812Z,13.80
2018-08-17T09:28:39.320Z,16.33
2018-08-17T09:31:08.970Z,15.13
2018-08-17T09:33:38.424Z,15.67
2018-08-17T09:36:08.991Z,14.47
2018-08-17T09:38:38.267Z,15.40
2018-08-17T09:41:07.813Z,15.30
2018-08-17T09:43:37.098Z,15.73
2018-08-17T09:46:06.456Z,16.35
2018-08-17T09:48:35.780Z,18.40
2018-08-17T09:51:05.355Z,15.30
2018-08-17T09:53:34.659Z,16.77
2018-08-17T09:56:04.044Z,17.13
2018-08-17T09:58:33.359Z,15.90
2018-08-17T10:08:15.141Z,15.30
2018-08-17T10:10:44.973Z,14.73
2018-08-17T10:13:14.302Z,13.37
2018-08-17T10:15:43.587Z,12.73
2018-08-17T10:18:13.093Z,11.53
2018-08-17T10:20:42.440Z,12.40
2018-08-17T10:23:16.915Z,12.20
2018-08-17T10:25:46.403Z,11.87
2018-08-17T10:28:15.713Z,12.43
2018-08-17T10:30:45.229Z,12.80
2018-08-17T10:33:16.237Z,13.53
2018-08-17T10:35:45.520Z,12.93
2018-08-17T10:38:14.809Z,12.27
2018-08-17T10:40:44.384Z,12.40
2018-08-17T10:43:20.650Z,11.33
2018-08-17T10:45:49.942Z,14.40
2018-08-17T10:48:19.315Z,14.73
2018-08-17T10:50:54.671Z,14.37
2018-08-17T10:53:26.223Z,14.43
2018-08-17T10:55:55.536Z,14.10
2018-08-17T10:58:24.792Z,15.83
2018-08-17T11:00:54.088Z,12.20
2018-08-17T11:03:23.346Z,12.47
2018-08-17T11:05:52.604Z,12.80
2018-08-17T11:08:22.181Z,13.30
2018-08-17T11:10:51.559Z,12.83
2018-08-17T11:13:20.895Z,12.00
2018-08-17T11:15:50.244Z,13.50
2018-08-17T11:18:19.696Z,15.93
2018-08-17T11:20:49.095Z,15.63
2018-08-17T11:23:18.747Z,13.43
2018-08-17T11:25:48.158Z,15.00
2018-08-17T11:28:17.462Z,14.27
2018-08-17T11:30:46.699Z,15.30
2018-08-17T11:35:47.863Z,14.23
2018-08-17T11:38:17.875Z,13.97
2018-08-17T11:40:47.132Z,14.80
2018-08-17T11:43:16.447Z,11.23
2018-08-17T11:45:46.696Z,10.87
2018-08-17T11:48:24.699Z,9.40
2018-08-17T11:50:54.175Z,8.57
2018-08-17T11:53:23.558Z,7.83
2018-08-17T11:55:52.870Z,9.23
2018-08-17T11:58:22.134Z,9.17
2018-08-17T12:00:51.437Z,9.07
2018-08-17T12:03:21.021Z,9.00
2018-08-17T12:05:50.341Z,8.30
2018-08-17T12:08:19.691Z,9.40
2018-08-17T12:11:06.036Z,7.60
2018-08-17T12:13:39.030Z,6.83
2018-08-17T12:16:11.338Z,6.77
2018-08-17T12:18:40.678Z,9.80
2018-08-17T12:21:09.966Z,10.27
2018-08-17T12:23:39.248Z,8.33
2018-08-17T12:26:08.510Z,5.47
2018-08-17T12:28:37.783Z,7.70
2018-08-17T12:31:07.105Z,7.53
2018-08-17T12:33:36.337Z,5.90
2018-08-17T12:36:05.860Z,6.00
2018-08-17T12:38:35.176Z,6.80
2018-08-17T12:41:04.401Z,7.67
2018-08-17T12:43:35.671Z,8.67
2018-08-17T12:46:05.103Z,7.57
2018-08-17T12:48:34.474Z,7.97
2018-08-17T12:51:04.650Z,6.17
2018-08-17T12:53:34.081Z,6.70
2018-08-17T12:56:03.399Z,7.03
2018-08-17T12:58:32.661Z,7.60
2018-08-17T13:01:01.908Z,5.63
2018-08-17T13:03:31.177Z,6.60
2018-08-17T13:06:00.491Z,5.80
2018-08-17T13:08:29.911Z,4.50
2018-08-17T13:11:00.366Z,5.10
2018-08-17T13:13:29.668Z,6.33
2018-08-17T13:16:06.262Z,5.73
2018-08-17T13:18:37.199Z,5.40
2018-08-17T13:21:06.994Z,6.10
2018-08-17T13:23:36.230Z,6.37
2018-08-17T13:26:05.465Z,5.33
2018-08-17T13:28:34.694Z,4.60
2018-08-17T13:31:03.951Z,5.67
2018-08-17T13:33:33.282Z,5.73
2018-08-17T13:36:02.553Z,6.00
2018-08-17T13:38:31.980Z,5.77
2018-08-17T13:41:01.368Z,5.33
2018-08-17T13:43:30.834Z,6.10
2018-08-17T13:46:00.311Z,7.23
2018-08-17T13:48:29.662Z,6.20
2018-08-17T13:50:59.222Z,7.73
2018-08-17T13:53:28.665Z,7.87
2018-08-17T13:55:57.984Z,8.23
2018-08-17T13:58:27.303Z,7.90
2018-08-17T14:00:56.587Z,8.47
2018-08-17T14:03:25.867Z,7.20
2018-08-17T14:05:55.215Z,8.73
2018-08-17T14:08:24.557Z,6.90
2018-08-17T14:10:53.856Z,7.17
2018-08-17T14:13:23.423Z,7.20
2018-08-17T14:15:52.755Z,8.77
2018-08-17T14:18:21.980Z,6.70
2018-08-17T14:20:51.307Z,7.40
2018-08-17T14:23:20.650Z,7.00
2018-08-17T14:25:49.996Z,6.70
2018-08-17T14:28:19.265Z,6.93
2018-08-17T14:30:48.737Z,6.43
2018-08-17T14:33:18.098Z,5.37
2018-08-17T14:35:47.468Z,5.50
2018-08-17T14:38:21.801Z,5.20
2018-08-17T14:40:51.150Z,5.30
2018-08-17T14:43:20.471Z,6.53
2018-08-17T14:45:49.732Z,6.80
2018-08-17T14:48:19.037Z,6.50
2018-08-17T14:50:48.386Z,6.50
2018-08-17T14:53:17.627Z,6.30
2018-08-17T14:55:46.990Z,5.73
2018-08-17T14:58:16.406Z,5.80
2018-08-17T15:00:45.669Z,5.03
2018-08-17T15:03:14.959Z,5.30
2018-08-17T15:05:44.234Z,5.60
2018-08-17T15:08:13.623Z,6.10
2018-08-17T15:10:42.905Z,4.40
2018-08-17T15:13:12.207Z,5.37
2018-08-17T15:15:41.559Z,5.30
2018-08-17T15:18:10.897Z,5.40
2018-08-17T15:20:40.222Z,4.40
2018-08-17T15:23:09.727Z,5.70
2018-08-17T15:25:39.182Z,4.03
2018-08-17T15:28:08.516Z,4.60
2018-08-17T15:30:37.799Z,2.80
2018-08-17T15:33:07.168Z,3.53
2018-08-17T15:35:36.453Z,3.07
2018-08-17T15:38:05.793Z,3.97
2018-08-17T15:40:35.077Z,2.80
2018-08-17T15:43:10.524Z,2.83
2018-08-17T15:45:39.983Z,2.70
2018-08-17T15:48:09.492Z,2.30
2018-08-17T15:50:38.788Z,3.03
2018-08-17T15:53:09.305Z,2.57
2018-08-17T15:55:38.668Z,3.33
2018-08-17T15:58:08.049Z,2.40
2018-08-17T16:00:38.093Z,1.80
2018-08-17T16:03:07.496Z,2.40
2018-08-17T16:05:36.869Z,2.50
2018-08-17T16:08:06.275Z,2.90
2018-08-17T16:10:35.577Z,3.07
2018-08-17T16:13:04.823Z,3.20
2018-08-17T16:15:34.156Z,2.73
2018-08-17T16:18:03.922Z,3.20
2018-08-17T16:20:33.250Z,2.23
2018-08-17T16:23:02.594Z,3.73
2018-08-17T16:25:31.927Z,2.77
2018-08-17T16:28:01.313Z,2.90
2018-08-17T16:30:30.635Z,2.97
2018-08-17T16:32:59.961Z,2.60
2018-08-17T16:35:29.380Z,3.50
2018-08-17T16:37:58.723Z,2.80
2018-08-17T16:40:29.951Z,3.23
2018-08-17T16:42:59.248Z,3.40
2018-08-17T16:45:28.548Z,3.47
2018-08-17T16:47:57.828Z,3.80
2018-08-17T16:50:27.229Z,3.47
2018-08-17T16:52:56.490Z,2.77
2018-08-17T16:55:25.960Z,3.20
2018-08-17T16:57:55.415Z,3.03
2018-08-17T17:00:24.756Z,3.07
2018-08-17T17:02:54.092Z,3.10
2018-08-17T17:05:23.378Z,3.03
2018-08-17T17:07:52.681Z,3.40
2018-08-17T17:10:22.258Z,3.30
2018-08-17T17:12:51.642Z,3.83
2018-08-17T17:15:21.367Z,4.03
2018-08-17T17:18:21.846Z,6.60
2018-08-17T17:20:51.163Z,5.87
2018-08-17T17:23:20.542Z,5.67
2018-08-17T17:25:49.925Z,6.37
2018-08-17T17:28:19.342Z,6.43
2018-08-17T17:30:51.304Z,10.00
2018-08-17T17:33:20.863Z,7.53
2018-08-17T17:35:50.279Z,6.10
2018-08-17T17:38:19.685Z,6.37
2018-08-17T17:40:48.975Z,5.40
2018-08-17T17:43:18.285Z,5.83
2018-08-17T17:45:47.587Z,5.67
2018-08-17T17:48:16.939Z,4.50
2018-08-17T17:50:46.257Z,4.30
2018-08-17T17:53:15.571Z,3.37
2018-08-17T17:55:51.426Z,3.67
2018-08-17T17:58:21.764Z,3.37
2018-08-17T18:00:58.251Z,3.97
2018-08-17T18:03:28.972Z,3.93
2018-08-17T18:06:05.415Z,4.10
2018-08-17T18:08:34.703Z,3.37
2018-08-17T18:11:04.176Z,4.33
2018-08-17T18:13:33.480Z,3.97
2018-08-17T18:16:02.980Z,3.90
2018-08-17T18:18:32.409Z,4.10
2018-08-17T18:21:01.754Z,4.17
2018-08-17T18:23:31.069Z,4.57
2018-08-17T18:26:00.339Z,4.77
2018-08-17T18:28:29.719Z,4.87
2018-08-17T18:30:59.028Z,4.90
2018-08-17T18:33:28.368Z,6.33
2018-08-17T18:35:57.788Z,7.50
2018-08-17T18:38:27.126Z,7.57
2018-08-17T18:40:56.486Z,8.07
2018-08-17T18:43:25.778Z,8.43
2018-08-17T18:45:55.040Z,8.93
2018-08-17T18:48:24.339Z,9.43
2018-08-17T18:50:53.642Z,10.20
2018-08-17T18:53:23.094Z,10.50
2018-08-17T18:55:52.488Z,9.87
2018-08-17T18:58:21.800Z,10.17
2018-08-17T19:00:51.119Z,9.77
2018-08-17T19:03:20.445Z,10.10
2018-08-17T19:05:49.723Z,12.07
2018-08-17T19:08:19.040Z,11.37
2018-08-17T19:10:48.271Z,10.70
2018-08-17T19:13:17.509Z,11.00
2018-08-17T19:15:53.445Z,11.93
2018-08-17T19:18:23.561Z,10.50
2018-08-17T19:20:52.819Z,11.60
2018-08-17T19:23:22.238Z,12.17
2018-08-17T19:25:51.683Z,14.17
2018-08-17T19:28:20.919Z,12.90
2018-08-17T19:30:50.264Z,12.57
2018-08-17T19:33:19.616Z,12.10
2018-08-17T19:35:49.248Z,11.57
2018-08-17T19:38:18.628Z,11.80
2018-08-17T19:40:47.910Z,11.87
2018-08-17T19:43:17.199Z,11.87
2018-08-17T19:45:46.622Z,12.23
2018-08-17T19:48:15.959Z,12.00
2018-08-17T19:50:45.245Z,12.00
2018-08-17T19:53:14.588Z,12.77
2018-08-17T19:55:44.055Z,11.07
2018-08-17T19:58:13.361Z,12.33
2018-08-17T20:00:42.678Z,13.03
2018-08-17T20:03:11.925Z,11.77
2018-08-17T20:05:41.172Z,11.33
2018-08-17T20:08:10.553Z,13.37
2018-08-17T20:10:46.455Z,13.57
2018-08-17T20:13:15.783Z,11.90
2018-08-17T20:15:45.117Z,13.10
2018-08-17T20:18:14.507Z,12.70
2018-08-17T20:20:43.895Z,12.40
2018-08-17T20:23:13.179Z,12.83
2018-08-17T20:25:43.041Z,13.30
2018-08-17T20:28:12.484Z,12.13
2018-08-17T20:30:43.082Z,12.17
2018-08-17T20:33:18.503Z,12.57
2018-08-17T20:35:47.908Z,12.70
2018-08-17T20:38:17.412Z,12.33
2018-08-17T20:40:46.864Z,11.00
2018-08-17T20:43:16.216Z,10.63
2018-08-17T20:45:45.768Z,11.73
2018-08-17T20:48:21.739Z,12.37
2018-08-17T20:50:51.362Z,11.07
2018-08-17T20:53:21.005Z,10.97
2018-08-17T20:55:50.593Z,10.37
2018-08-17T20:58:20.304Z,10.37
2018-08-17T21:00:49.842Z,11.73
2018-08-17T21:03:19.990Z,9.70
2018-08-17T21:05:49.671Z,10.20
2018-08-17T21:08:19.207Z,11.03
2018-08-17T21:10:49.586Z,10.17
2018-08-17T21:13:25.569Z,11.37
2018-08-17T21:15:54.966Z,11.40
2018-08-17T21:18:24.425Z,10.17
2018-08-17T21:20:55.335Z,11.00
2018-08-17T21:23:25.379Z,10.82
2018-08-17T21:25:54.656Z,11.00
2018-08-17T21:28:23.964Z,9.67
2018-08-17T21:30:53.212Z,10.57
2018-08-17T21:33:22.668Z,10.25
2018-08-17T21:35:51.944Z,9.30
2018-08-17T21:38:21.536Z,10.17
2018-08-17T21:40:50.808Z,9.60
2018-08-17T21:43:20.236Z,8.87
2018-08-17T21:45:51.956Z,9.53
2018-08-17T21:48:25.339Z,11.73
2018-08-17T21:50:54.705Z,9.50
2018-08-17T21:53:24.014Z,10.00
2018-08-17T21:55:53.337Z,9.00
2018-08-17T21:58:22.752Z,9.10
2018-08-17T22:00:52.044Z,9.97
2018-08-17T22:03:38.546Z,9.07
2018-08-17T22:06:08.251Z,9.27
2018-08-17T22:08:38.196Z,8.10
2018-08-17T22:11:07.559Z,8.10
2018-08-17T22:13:37.512Z,9.67
2018-08-17T22:16:07.421Z,7.70
2018-08-17T22:18:36.803Z,9.10
2018-08-17T22:21:06.425Z,10.53
2018-08-17T22:23:36.060Z,8.90
2018-08-17T22:26:05.447Z,7.83
2018-08-17T22:28:34.673Z,8.23
2018-08-17T22:31:04.043Z,8.37
2018-08-17T22:33:33.350Z,7.73
2018-08-17T22:36:02.902Z,8.00
2018-08-17T22:38:36.320Z,9.17
2018-08-17T22:41:06.207Z,7.90
2018-08-17T22:43:35.435Z,7.97
2018-08-17T22:46:05.485Z,8.17
2018-08-17T22:48:34.848Z,7.73
2018-08-17T22:51:04.230Z,7.57
2018-08-17T22:53:33.510Z,8.90
2018-08-17T22:56:02.887Z,7.87
2018-08-17T22:58:36.320Z,7.80
2018-08-17T23:01:05.774Z,8.03
2018-08-17T23:03:35.741Z,8.07
2018-08-17T23:06:05.040Z,8.30
2018-08-17T23:08:34.882Z,7.50
2018-08-17T23:11:04.339Z,6.97
2018-08-17T23:13:33.617Z,6.50
2018-08-17T23:16:03.082Z,7.30
2018-08-17T23:18:32.346Z,6.60
2018-08-17T23:21:01.580Z,6.77
2018-08-17T23:23:30.852Z,5.63
2018-08-17T23:26:00.099Z,6.50
2018-08-17T23:28:29.376Z,5.30
2018-08-17T23:30:58.724Z,5.53
2018-08-17T23:33:27.935Z,5.57
2018-08-17T23:35:57.184Z,4.97
2018-08-17T23:38:26.460Z,5.33
2018-08-17T23:40:55.712Z,5.10
2018-08-17T23:43:25.011Z,4.90
2018-08-17T23:45:54.333Z,5.00
2018-08-17T23:48:23.612Z,4.30
2018-08-17T23:50:52.863Z,4.43
2018-08-17T23:53:22.300Z,4.40
2018-08-17T23:55:51.596Z,5.83
2018-08-17T23:58:21.127Z,4.97
